Time;durP1;ratioP1;P1;durP2;ratioP2;P2;SDS_P1;SDS_P2;PMS_P1;PMS_P2;Temp;Humidity;BMP_temperature;BMP_pressure;BME280_temperature;BME280_humidity;BME280_pressure;Samples;Min_cycle;Max_cycle;Signal;HPM_P1;HPM_P2
2023/04/03 00:02:09;;;;;;;5.73;5.17;;;3.80;99.90;;;4.49;85.15;98661.78;5245704;28;20200;-66
2023/04/03 00:04:42;;;;;;;5.50;5.10;;;3.90;99.90;;;4.16;84.16;98662.06;5241295;28;20226;-66
2023/04/03 00:07:16;;;;;;;5.53;5.13;;;3.70;99.90;;;4.20;84.22;98654.00;5238038;28;20196;-66
2023/04/03 00:09:49;;;;;;;6.07;5.60;;;3.70;99.90;;;4.21;84.79;98650.75;5236936;28;20643;-66
2023/04/03 00:12:22;;;;;;;5.73;5.27;;;3.70;99.90;;;4.15;83.47;98655.22;5234512;28;20207;-66
2023/04/03 00:14:55;;;;;;;5.90;5.40;;;3.60;99.90;;;4.13;84.29;98654.19;5234405;28;20509;-66
2023/04/03 00:17:28;;;;;;;5.97;5.57;;;3.60;99.90;;;4.02;84.61;98655.69;5237525;28;20549;-66
2023/04/03 00:20:01;;;;;;;5.70;5.30;;;3.60;99.90;;;4.09;83.88;98649.56;5237202;28;20611;-65
2023/04/03 00:22:36;;;;;;;5.43;5.03;;;3.60;99.90;;;4.23;84.01;98655.19;5241299;28;20219;-67
2023/04/03 00:25:10;;;;;;;5.60;5.27;;;3.70;99.90;;;4.11;84.61;98648.09;5238033;28;20214;-65
2023/04/03 00:27:43;;;;;;;6.27;5.77;;;3.60;99.90;;;4.07;84.42;98654.50;5238836;28;20214;-66
2023/04/03 00:30:18;;;;;;;5.57;5.17;;;3.60;99.90;;;4.10;83.59;98658.97;5242139;28;20200;-66
2023/04/03 00:32:53;;;;;;;5.73;5.23;;;3.60;99.90;;;3.93;83.63;98645.59;5238574;28;20625;-66
2023/04/03 00:35:26;;;;;;;5.27;4.87;;;3.50;99.90;;;3.91;84.52;98657.19;5240200;28;20219;-66
2023/04/03 00:38:00;;;;;;;5.40;5.00;;;3.50;99.90;;;3.93;83.66;98653.19;5233473;28;20221;-66
2023/04/03 00:40:37;;;;;;;5.30;4.97;;;3.50;99.90;;;4.04;84.24;98656.75;5234853;28;20204;-66
2023/04/03 00:43:14;;;;;;;5.47;4.80;;;3.50;99.90;;;4.10;84.57;98656.44;5235806;28;20237;-66
2023/04/03 00:45:49;;;;;;;5.63;5.17;;;3.50;99.90;;;4.09;84.88;98659.69;5230801;28;20234;-66
2023/04/03 00:48:27;;;;;;;5.43;4.97;;;3.50;99.90;;;4.01;83.67;98657.34;5228226;28;20196;-66
2023/04/03 00:51:00;;;;;;;6.10;5.57;;;3.50;99.90;;;4.04;83.37;98650.03;5238542;28;20199;-66
2023/04/03 00:53:41;;;;;;;5.40;5.00;;;3.50;99.90;;;4.10;83.29;98656.44;5235292;28;20201;-65
2023/04/03 00:56:18;;;;;;;6.00;5.50;;;3.60;99.90;;;3.92;83.72;98651.41;5234860;28;20393;-66
2023/04/03 00:58:56;;;;;;;5.67;5.27;;;3.50;99.90;;;4.09;83.42;98650.47;5227394;28;20266;-65
2023/04/03 01:01:31;;;;;;;5.40;5.00;;;3.50;99.90;;;3.93;83.05;98643.06;5228275;28;20285;-65
2023/04/03 01:04:06;;;;;;;5.73;5.30;;;3.50;99.90;;;3.93;83.49;98638.00;5239502;28;20230;-66
2023/04/03 01:06:39;;;;;;;5.27;4.87;;;3.50;99.90;;;4.02;83.63;98643.06;5237268;28;20196;-65
2023/04/03 01:09:13;;;;;;;5.80;5.40;;;3.50;99.90;;;4.11;82.62;98645.56;5236368;28;20200;-65
2023/04/03 01:11:46;;;;;;;5.77;5.43;;;3.50;99.90;;;4.14;82.51;98645.84;5228902;28;20590;-65
2023/04/03 01:14:19;;;;;;;6.27;5.77;;;3.50;99.90;;;4.02;82.37;98643.94;5229288;28;20229;-66
2023/04/03 01:16:54;;;;;;;5.57;5.17;;;3.50;99.90;;;3.94;82.25;98651.53;5230995;28;20202;-66
2023/04/03 01:19:27;;;;;;;5.60;5.20;;;3.40;99.90;;;3.83;81.79;98642.94;5231897;28;20788;-65
2023/04/03 01:22:18;;;;;;;5.57;5.13;;;3.40;99.90;;;3.92;82.19;98656.47;5229499;28;20221;-66
2023/04/03 01:24:53;;;;;;;5.60;5.20;;;3.40;99.90;;;3.79;82.71;98658.56;5233922;28;20765;-66
2023/04/03 01:27:27;;;;;;;5.83;5.43;;;3.30;99.90;;;3.75;82.62;98648.88;5225693;28;20668;-66
2023/04/03 01:30:00;;;;;;;5.73;5.23;;;3.30;99.90;;;3.89;82.75;98653.63;5230303;28;20197;-65
2023/04/03 01:32:34;;;;;;;5.83;5.33;;;3.30;99.90;;;3.80;82.81;98651.09;5228043;28;20201;-66
2023/04/03 01:35:09;;;;;;;5.57;5.07;;;3.30;99.90;;;3.91;82.85;98649.63;5241690;28;20235;-65
2023/04/03 01:37:42;;;;;;;5.70;5.30;;;3.30;99.90;;;3.69;83.75;98651.75;5229981;28;20192;-65
2023/04/03 01:40:15;;;;;;;6.20;5.60;;;3.30;99.90;;;3.73;83.87;98647.88;5232150;28;20231;-66
2023/04/03 01:42:48;;;;;;;5.67;5.27;;;3.30;99.90;;;3.71;83.46;98649.34;5226177;28;20207;-65
2023/04/03 01:45:21;;;;;;;6.43;5.37;;;3.20;99.90;;;3.71;84.26;98657.81;5238866;28;20220;-65
2023/04/03 01:47:56;;;;;;;5.73;5.33;;;3.30;99.90;;;3.84;83.89;98653.22;5231554;28;20280;-65
2023/04/03 01:50:29;;;;;;;6.07;5.67;;;3.30;99.90;;;3.78;83.34;98646.69;5233829;28;20251;-66
2023/04/03 01:53:02;;;;;;;6.77;5.17;;;3.30;99.90;;;3.73;83.28;98647.88;5238987;28;20287;-65
2023/04/03 01:55:35;;;;;;;5.77;5.37;;;3.20;99.90;;;3.73;83.53;98658.88;5238041;28;20253;-66
2023/04/03 01:58:07;;;;;;;5.97;5.57;;;3.20;99.90;;;3.59;84.33;98656.66;5233687;28;20641;-66
2023/04/03 02:00:41;;;;;;;6.17;5.67;;;3.20;99.90;;;3.58;83.76;98657.41;5237990;28;20205;-66
2023/04/03 02:03:15;;;;;;;5.83;5.43;;;3.20;99.90;;;3.69;83.51;98660.94;5243844;28;20207;-66
2023/04/03 02:05:49;;;;;;;5.90;5.40;;;3.20;99.90;;;3.79;82.90;98663.63;5238080;28;20216;-64
2023/04/03 02:08:22;;;;;;;5.63;5.23;;;3.30;99.90;;;3.81;82.50;98667.19;5239943;28;20507;-66
2023/04/03 02:10:55;;;;;;;6.00;5.50;;;3.30;99.90;;;3.77;82.89;98671.03;5234007;28;20297;-66
2023/04/03 02:13:28;;;;;;;4.97;4.67;;;3.30;99.90;;;3.81;82.20;98667.19;5235916;28;20205;-65
2023/04/03 02:16:08;;;;;;;5.87;5.37;;;3.40;99.90;;;3.78;82.94;98669.44;5238517;28;20235;-65
2023/04/03 02:18:42;;;;;;;5.77;5.27;;;3.30;99.90;;;3.74;83.30;98670.75;5242617;28;20216;-66
2023/04/03 02:21:15;;;;;;;5.00;4.60;;;3.30;99.90;;;3.80;82.98;98671.34;5242970;28;20562;-66
2023/04/03 02:23:48;;;;;;;5.27;4.73;;;3.30;99.90;;;3.87;82.53;98675.38;5240274;28;20214;-66
2023/04/03 02:26:21;;;;;;;5.17;4.77;;;3.40;99.90;;;3.87;82.50;98677.00;5239807;28;20202;-66
2023/04/03 02:28:54;;;;;;;5.07;4.67;;;3.40;99.90;;;3.93;82.97;98673.41;5240607;28;20205;-66
2023/04/03 02:31:27;;;;;;;5.37;4.97;;;3.40;99.90;;;3.91;83.25;98669.84;5243799;28;20203;-67
2023/04/03 02:34:02;;;;;;;5.63;5.20;;;3.50;99.90;;;3.98;82.95;98666.28;5249870;28;20806;-67
2023/04/03 02:36:35;;;;;;;5.50;5.00;;;3.50;99.90;;;4.03;82.93;98671.03;5231709;28;20593;-66
2023/04/03 02:39:08;;;;;;;5.57;5.17;;;3.50;99.90;;;4.00;82.46;98670.72;5238070;28;20229;-65
2023/04/03 02:41:41;;;;;;;5.53;5.13;;;3.50;99.90;;;4.03;82.33;98671.03;5231096;28;20211;-66
2023/04/03 02:44:14;;;;;;;5.70;5.30;;;3.50;99.90;;;4.03;81.99;98665.06;5231474;28;20657;-65
2023/04/03 02:46:47;;;;;;;5.23;4.83;;;3.50;99.90;;;4.13;82.44;98671.91;5234458;28;20237;-66
2023/04/03 02:49:21;;;;;;;5.93;5.53;;;3.50;99.90;;;4.07;81.73;98675.63;5234307;28;20711;-65
2023/04/03 02:51:54;;;;;;;5.53;5.13;;;3.50;99.90;;;4.13;82.78;98676.97;5240841;28;20609;-65
2023/04/03 02:54:30;;;;;;;5.73;5.20;;;3.60;99.90;;;4.19;82.37;98675.00;5236881;28;20227;-66
2023/04/03 02:57:03;;;;;;;6.07;5.53;;;3.60;99.90;;;4.24;82.81;98668.75;5233616;28;20769;-65
2023/04/03 02:59:36;;;;;;;5.40;5.10;;;3.60;99.90;;;4.03;81.14;98671.03;5237494;28;20680;-66
2023/04/03 03:02:09;;;;;;;5.37;4.97;;;3.50;99.90;;;4.13;81.04;98671.91;5235704;28;20208;-65
2023/04/03 03:04:44;;;;;;;5.30;4.87;;;3.50;99.90;;;4.18;81.97;98676.66;5236032;28;20220;-66
2023/04/03 03:07:17;;;;;;;5.30;4.90;;;3.60;99.90;;;4.20;81.88;98674.25;5238237;28;20727;-66
2023/04/03 03:09:50;;;;;;;5.63;5.13;;;3.60;99.90;;;4.22;81.55;98672.75;5238052;28;20203;-65
2023/04/03 03:12:24;;;;;;;5.43;5.00;;;3.60;99.90;;;4.29;81.61;98670.06;5233984;28;20210;-65
2023/04/03 03:14:56;;;;;;;5.57;5.07;;;3.70;99.90;;;4.33;81.27;98669.63;5234047;28;20758;-66
2023/04/03 03:17:29;;;;;;;5.10;4.80;;;3.70;99.90;;;4.23;80.23;98672.00;5233799;28;20212;-65
2023/04/03 03:20:05;;;;;;;5.03;4.63;;;3.70;99.90;;;4.22;80.95;98662.66;5230415;28;20653;-65
2023/04/03 03:22:38;;;;;;;5.57;5.17;;;3.60;99.90;;;4.28;81.30;98669.16;5233856;28;20202;-65
2023/04/03 03:25:11;;;;;;;4.80;4.40;;;3.70;99.90;;;4.23;79.31;98669.47;5236697;28;20230;-65
2023/04/03 03:27:45;;;;;;;5.67;5.17;;;3.60;99.90;;;4.22;80.19;98678.72;5234213;28;20206;-65
2023/04/03 03:30:18;;;;;;;5.60;5.20;;;3.60;99.90;;;4.19;78.18;98677.53;5229527;28;20203;-65
2023/04/03 03:32:51;;;;;;;4.80;4.40;;;3.60;99.90;;;4.18;79.17;98671.59;5231472;28;20657;-65
2023/04/03 03:35:26;;;;;;;5.77;5.30;;;3.60;99.90;;;4.10;77.37;98666.56;5239497;28;20229;-65
2023/04/03 03:37:59;;;;;;;5.50;5.00;;;3.50;99.90;;;4.13;77.17;98669.38;5235570;28;20201;-65
2023/04/03 03:40:32;;;;;;;6.03;5.43;;;3.60;99.90;;;4.00;76.82;98665.66;5239860;28;20219;-65
2023/04/03 03:43:05;;;;;;;5.80;4.73;;;3.50;99.90;;;4.15;77.05;98662.78;5230682;28;20208;-65
2023/04/03 03:45:38;;;;;;;4.77;4.37;;;3.60;99.90;;;4.04;76.93;98652.56;5230629;28;20218;-66
2023/04/03 03:48:11;;;;;;;5.00;4.60;;;3.50;99.90;;;4.00;77.86;98650.47;5234387;28;20694;-65
2023/04/03 03:50:45;;;;;;;5.27;4.90;;;3.50;99.90;;;4.10;77.84;98652.25;5231913;28;20194;-65
2023/04/03 03:53:19;;;;;;;5.07;4.70;;;3.60;99.90;;;4.18;78.27;98655.53;5235637;28;20208;-64
2023/04/03 03:55:52;;;;;;;5.40;4.90;;;3.60;99.90;;;4.19;78.34;98659.84;5233708;28;20593;-65
2023/04/03 03:58:25;;;;;;;5.40;5.00;;;3.60;99.90;;;4.16;77.05;98654.47;5230578;28;20207;-65
2023/04/03 04:01:01;;;;;;;5.33;4.93;;;3.70;99.90;;;4.22;78.12;98658.47;5232515;28;20217;-64
2023/04/03 04:03:34;;;;;;;4.27;4.00;;;3.60;99.90;;;4.24;77.98;98666.22;5241371;28;20194;-66
2023/04/03 04:06:09;;;;;;;5.10;4.73;;;3.60;99.90;;;4.22;77.84;98662.66;5239582;28;20226;-66
2023/04/03 04:08:42;;;;;;;5.17;4.67;;;3.60;99.90;;;4.08;77.58;98658.81;5228938;28;20200;-64
2023/04/03 04:11:15;;;;;;;4.67;4.30;;;3.50;99.90;;;4.05;77.30;98656.00;5231983;28;20200;-65
2023/04/03 04:13:48;;;;;;;5.10;4.60;;;3.50;99.90;;;4.14;78.31;98663.56;5233086;28;20541;-65
2023/04/03 04:16:21;;;;;;;5.13;4.70;;;3.50;99.90;;;4.01;75.47;98657.34;5235078;28;20575;-65
2023/04/03 04:18:54;;;;;;;4.80;4.40;;;3.50;99.90;;;3.96;76.07;98655.13;5238122;28;20199;-66
2023/04/03 04:21:29;;;;;;;5.20;4.80;;;3.50;99.90;;;4.00;76.12;98650.47;5238050;28;20216;-65
2023/04/03 04:24:02;;;;;;;5.13;4.73;;;3.50;99.90;;;3.89;76.07;98653.63;5242905;28;20231;-65
2023/04/03 04:26:35;;;;;;;4.90;4.50;;;3.40;99.90;;;3.96;77.16;98653.47;5233952;28;20209;-65
2023/04/03 04:29:10;;;;;;;4.90;4.60;;;3.40;99.90;;;3.96;76.30;98650.94;5239229;28;20673;-64
2023/04/03 04:31:43;;;;;;;4.57;4.30;;;3.40;99.90;;;3.93;76.31;98653.19;5238458;28;20213;-66
2023/04/03 04:34:16;;;;;;;4.80;4.40;;;3.40;99.90;;;3.96;77.11;98650.94;5242545;28;20223;-65
2023/04/03 04:36:50;;;;;;;4.63;4.33;;;3.40;99.90;;;4.04;78.09;98652.56;5234122;28;20306;-65
2023/04/03 04:39:23;;;;;;;4.93;4.53;;;3.50;99.90;;;4.06;77.49;98656.16;5236611;28;20204;-65
2023/04/03 04:41:56;;;;;;;4.93;4.63;;;3.50;99.90;;;4.07;77.53;98660.44;5237019;28;20235;-65
2023/04/03 04:44:29;;;;;;;4.43;4.13;;;3.50;99.90;;;4.01;76.61;98661.50;5235336;28;20232;-65
2023/04/03 04:47:02;;;;;;;4.90;4.50;;;3.50;99.90;;;4.04;77.13;98666.88;5230579;28;20227;-65
2023/04/03 04:49:35;;;;;;;4.80;4.50;;;3.40;99.90;;;4.01;77.59;98661.50;5244190;28;20198;-65
2023/04/03 04:52:10;;;;;;;4.73;4.43;;;3.40;99.90;;;3.97;77.55;98665.38;5234231;28;20319;-66
2023/04/03 04:54:43;;;;;;;4.93;4.63;;;3.40;99.90;;;3.93;76.87;98668.38;5231119;28;20230;-65
2023/04/03 04:57:17;;;;;;;4.87;4.57;;;3.40;99.90;;;3.84;76.68;98675.06;5228878;28;20634;-64
2023/04/03 04:59:50;;;;;;;4.70;4.40;;;3.30;99.90;;;3.71;76.22;98672.09;5236247;28;20246;-65
2023/04/03 05:02:23;;;;;;;4.93;4.63;;;3.20;99.90;;;3.66;76.83;98665.69;5233211;28;20204;-65
2023/04/03 05:04:56;;;;;;;5.00;4.60;;;3.10;99.90;;;3.71;77.85;98677.16;5225787;28;20675;-65
2023/04/03 05:07:30;;;;;;;5.07;4.67;;;3.10;99.90;;;3.54;76.49;98676.41;5237116;28;20203;-65
2023/04/03 05:10:05;;;;;;;4.67;4.37;;;3.00;99.90;;;3.51;76.60;98693.81;5236291;28;20199;-65
2023/04/03 05:12:38;;;;;;;5.23;4.83;;;2.90;99.90;;;3.38;77.07;98688.31;5230523;28;20228;-65
2023/04/03 05:15:11;;;;;;;5.17;4.77;;;2.90;99.90;;;3.48;76.68;98687.56;5235449;28;20702;-66
2023/04/03 05:17:44;;;;;;;5.07;4.67;;;2.90;99.90;;;3.50;77.44;98684.44;5236389;28;20203;-66
2023/04/03 05:20:18;;;;;;;5.47;5.10;;;2.90;99.90;;;3.28;77.56;98689.03;5233848;28;20248;-65
2023/04/03 05:22:52;;;;;;;5.77;5.27;;;2.80;99.90;;;3.28;77.35;98696.59;5230488;28;20193;-65
2023/04/03 05:25:26;;;;;;;5.73;5.23;;;2.80;99.90;;;3.18;78.00;98698.97;5235208;28;20216;-65
2023/04/03 05:27:59;;;;;;;5.77;5.37;;;2.70;99.90;;;3.15;78.36;98698.69;5236009;28;20292;-65
2023/04/03 05:30:32;;;;;;;5.33;4.67;;;2.70;99.90;;;3.18;77.76;98704.03;5233423;28;20203;-65
2023/04/03 05:33:06;;;;;;;5.13;4.73;;;2.70;99.90;;;3.23;77.32;98702.81;5232983;28;20206;-65
2023/04/03 05:35:41;;;;;;;4.70;4.40;;;2.70;99.90;;;3.22;77.47;98697.66;5234631;28;20217;-64
2023/04/03 05:38:16;;;;;;;5.43;4.93;;;2.80;99.90;;;3.31;78.48;98704.47;5244275;28;20203;-66
2023/04/03 05:40:49;;;;;;;4.63;4.27;;;2.90;99.90;;;3.28;77.85;98705.81;5231333;28;20234;-66
2023/04/03 05:43:22;;;;;;;5.23;4.83;;;2.80;99.90;;;3.24;78.54;98703.75;5239808;28;20204;-66
2023/04/03 05:45:55;;;;;;;5.13;4.83;;;2.80;99.90;;;3.36;77.41;98710.88;5237330;28;20234;-65
2023/04/03 05:48:28;;;;;;;5.00;4.60;;;2.90;99.90;;;3.51;77.05;98710.59;5240197;28;20209;-65
2023/04/03 05:51:01;;;;;;;4.93;4.53;;;3.00;99.90;;;3.52;77.38;98708.25;5239658;28;20203;-66
2023/04/03 05:53:37;;;;;;;5.30;4.90;;;3.00;99.90;;;3.52;76.68;98707.31;5230617;28;20205;-66
2023/04/03 05:56:10;;;;;;;4.87;4.57;;;3.10;99.90;;;3.56;77.51;98709.44;5231617;28;20223;-66
2023/04/03 05:58:43;;;;;;;4.80;4.50;;;3.10;99.90;;;3.67;77.52;98713.00;5240166;28;20200;-65
2023/04/03 06:01:16;;;;;;;5.07;4.67;;;3.10;99.90;;;3.78;76.94;98709.88;5236406;28;20230;-66
2023/04/03 06:03:49;;;;;;;4.97;4.57;;;3.20;99.90;;;3.78;77.07;98709.88;5231191;28;20579;-66
2023/04/03 06:06:23;;;;;;;4.93;4.37;;;3.20;99.90;;;3.92;76.99;98714.63;5239465;28;20205;-66
2023/04/03 06:08:57;;;;;;;5.00;4.60;;;3.30;99.90;;;4.09;76.93;98720.41;5236715;28;20930;-65
2023/04/03 06:11:31;;;;;;;4.73;4.43;;;3.40;99.90;;;4.17;77.19;98719.50;5237993;28;20443;-65
2023/04/03 06:14:04;;;;;;;4.77;4.40;;;3.50;99.90;;;4.20;76.10;98719.78;5235027;28;20227;-66
2023/04/03 06:16:38;;;;;;;5.17;4.87;;;3.50;99.90;;;4.05;75.75;98724.28;5231181;28;20216;-65
2023/04/03 06:19:13;;;;;;;5.30;4.90;;;3.50;99.90;;;4.19;76.58;98718.00;5243953;28;20206;-66
2023/04/03 06:21:46;;;;;;;4.87;4.57;;;3.50;99.90;;;4.29;75.14;98720.66;5228314;28;20756;-67
2023/04/03 06:24:23;;;;;;;5.30;4.90;;;3.70;99.90;;;4.33;75.59;98724.41;5235635;28;20717;-65
2023/04/03 06:26:56;;;;;;;4.97;4.57;;;3.70;99.90;;;4.06;75.69;98721.00;5235754;28;20207;-66
2023/04/03 06:29:29;;;;;;;4.43;4.13;;;3.50;99.90;;;4.23;75.53;98723.50;5239696;28;20668;-65
2023/04/03 06:32:02;;;;;;;4.63;4.33;;;3.60;99.90;;;4.22;75.50;98728.44;5227502;28;20211;-66
2023/04/03 06:34:35;;;;;;;4.87;4.57;;;3.60;99.90;;;4.37;76.08;98729.88;5234750;28;20546;-66
2023/04/03 06:37:12;;;;;;;4.73;4.43;;;3.70;99.90;;;4.56;77.01;98734.16;5243741;28;20695;-66
2023/04/03 06:39:47;;;;;;;5.37;4.97;;;3.80;99.90;;;4.74;77.27;98738.41;5235371;28;20204;-66
2023/04/03 06:42:20;;;;;;;5.17;4.63;;;4.00;99.90;;;4.73;74.86;98739.16;5239498;28;20246;-66
2023/04/03 06:44:53;;;;;;;5.13;4.67;;;4.00;99.90;;;4.92;72.45;98735.06;5239461;28;20714;-66
2023/04/03 06:47:26;;;;;;;5.37;4.97;;;4.10;99.90;;;4.83;73.74;98734.19;5239957;28;20201;-66
2023/04/03 06:49:59;;;;;;;5.33;4.93;;;4.10;99.90;;;4.92;75.87;98739.22;5232997;28;20208;-66
2023/04/03 06:52:33;;;;;;;5.93;5.13;;;4.10;99.90;;;5.10;73.87;98740.94;5240940;28;20582;-66
2023/04/03 06:55:09;;;;;;;5.27;4.80;;;4.30;99.90;;;5.00;73.05;98737.41;5231675;28;20219;-65
2023/04/03 06:57:42;;;;;;;5.00;4.50;;;4.20;99.90;;;5.04;72.00;98740.38;5233029;28;20655;-66
2023/04/03 07:00:17;;;;;;;5.07;4.67;;;4.30;99.90;;;5.14;71.39;98750.59;5236592;28;20219;-65
2023/04/03 07:02:50;;;;;;;5.10;4.70;;;4.40;99.90;;;4.69;73.90;98745.59;5230619;28;20234;-66
2023/04/03 07:05:23;;;;;;;4.60;4.10;;;4.20;99.90;;;4.95;73.33;98740.41;5234558;28;20224;-65
2023/04/03 07:07:56;;;;;;;4.80;4.30;;;4.30;99.90;;;4.94;72.62;98742.78;5243937;28;20558;-66
2023/04/03 07:10:30;;;;;;;5.00;4.60;;;4.30;99.90;;;4.86;72.42;98752.19;5231100;28;20205;-66
2023/04/03 07:13:03;;;;;;;5.70;5.20;;;4.30;99.90;;;4.97;72.71;98751.56;5232064;28;20197;-65
2023/04/03 07:15:36;;;;;;;4.47;4.17;;;4.30;99.90;;;5.00;73.71;98757.69;5236079;28;20322;-66
2023/04/03 07:18:10;;;;;;;4.90;4.43;;;4.40;99.90;;;4.97;73.46;98755.75;5231842;28;20580;-65
2023/04/03 07:20:43;;;;;;;4.47;4.17;;;4.30;99.90;;;4.85;73.31;98757.13;5238133;28;20655;-66
2023/04/03 07:23:16;;;;;;;5.40;5.00;;;4.30;99.90;;;4.94;72.98;98752.94;5228166;28;20228;-66
2023/04/03 07:25:52;;;;;;;5.03;4.63;;;4.30;99.90;;;5.10;72.24;98752.72;5231963;28;20255;-66
2023/04/03 07:28:26;;;;;;;5.20;4.70;;;4.50;99.90;;;4.72;72.90;98760.16;5229294;28;20573;-66
2023/04/03 07:31:04;;;;;;;5.60;5.07;;;4.40;99.90;;;4.74;73.75;98757.00;5234721;28;20517;-66
2023/04/03 07:33:38;;;;;;;5.27;4.70;;;4.30;99.90;;;4.85;73.11;98768.16;5235084;28;20231;-66
2023/04/03 07:36:16;;;;;;;4.53;4.17;;;4.30;99.90;;;4.89;74.32;98760.13;5238096;28;20250;-66
2023/04/03 07:38:49;;;;;;;5.37;4.87;;;4.40;99.90;;;4.97;73.70;98761.69;5235442;28;20205;-64
2023/04/03 07:41:23;;;;;;;5.00;4.50;;;4.50;99.90;;;5.19;73.55;98766.22;5236233;28;20295;-65
2023/04/03 07:43:56;;;;;;;4.87;4.37;;;4.60;99.90;;;5.17;72.57;98763.53;5237629;28;20227;-64
2023/04/03 07:46:29;;;;;;;7.13;4.57;;;4.70;99.90;;;4.79;73.41;98767.59;5233447;28;20223;-66
2023/04/03 07:49:03;;;;;;;5.20;4.80;;;4.50;99.90;;;5.24;72.87;98765.03;5232017;28;20593;-66
2023/04/03 07:51:37;;;;;;;6.50;4.87;;;4.80;99.90;;;5.24;73.07;98769.19;5239244;28;20200;-65
2023/04/03 07:54:11;;;;;;;5.53;5.03;;;4.80;99.90;;;5.35;71.58;98776.13;5237167;28;20228;-65
2023/04/03 07:56:45;;;;;;;5.20;4.80;;;4.90;99.90;;;5.16;72.90;98776.09;5233060;28;20288;-65
2023/04/03 07:59:18;;;;;;;5.80;5.27;;;4.80;99.90;;;5.05;72.68;98770.03;5235187;28;20200;-65
2023/04/03 08:01:51;;;;;;;7.43;6.43;;;4.70;99.90;;;5.59;72.02;98769.88;5235990;28;20227;-66
2023/04/03 08:04:24;;;;;;;5.10;4.67;;;5.10;99.90;;;5.55;69.72;98780.47;5234657;28;20224;-66
2023/04/03 08:06:57;;;;;;;5.70;5.30;;;5.10;99.90;;;5.32;71.54;98775.84;5240180;28;20741;-66
2023/04/03 08:09:31;;;;;;;4.83;4.43;;;5.00;99.90;;;5.55;70.00;98783.94;5233490;28;20208;-66
2023/04/03 08:12:06;;;;;;;5.43;5.00;;;5.20;99.90;;;5.68;70.72;98779.97;5233776;28;20660;-66
2023/04/03 08:14:39;;;;;;;5.27;4.80;;;5.20;99.90;;;5.81;69.83;98780.34;5238348;28;20596;-65
2023/04/03 08:17:12;;;;;;;5.17;4.87;;;5.40;99.90;;;5.92;68.20;98786.34;5230744;28;20475;-66
2023/04/03 08:19:45;;;;;;;5.10;4.70;;;5.40;99.90;;;6.07;67.68;98782.72;5231075;28;20204;-66
2023/04/03 08:22:18;;;;;;;5.40;4.77;;;5.60;99.90;;;5.92;69.61;98776.19;5229566;28;20252;-65
2023/04/03 08:24:51;;;;;;;5.53;5.10;;;5.50;99.90;;;6.30;68.63;98777.13;5233499;28;20232;-65
2023/04/03 08:27:32;;;;;;;5.17;4.77;;;5.80;99.90;;;6.32;68.11;98784.13;5230525;28;20201;-66
2023/04/03 08:30:08;;;;;;;5.73;4.77;;;5.80;99.90;;;6.32;68.20;98776.50;5234557;28;20204;-66
2023/04/03 08:32:42;;;;;;;5.43;4.93;;;5.90;99.90;;;6.47;67.57;98778.63;5228150;28;20211;-66
2023/04/03 08:35:16;;;;;;;4.97;4.57;;;5.90;99.90;;;6.70;66.39;98773.00;5232774;28;20221;-65
2023/04/03 08:37:49;;;;;;;6.73;5.43;;;6.00;99.90;;;6.57;66.37;98777.75;5230856;28;20207;-66
2023/04/03 08:40:22;;;;;;;5.27;4.87;;;6.10;99.90;;;6.54;66.60;98784.34;5239329;28;20204;-67
2023/04/03 08:43:20;;;;;;;4.93;4.50;;;6.00;99.90;;;6.36;66.46;98782.75;5234654;28;20205;-65
2023/04/03 08:45:58;;;;;;;4.57;4.17;;;5.80;99.90;;;6.21;66.34;98781.38;5228583;28;20209;-65
2023/04/03 08:48:36;;;;;;;4.47;4.10;;;5.70;99.90;;;6.24;65.77;98781.66;5239278;28;20199;-65
2023/04/03 08:51:15;;;;;;;4.80;4.50;;;5.70;99.90;;;6.10;66.84;98785.50;5240527;28;20196;-65
2023/04/03 08:53:58;;;;;;;4.50;4.20;;;5.70;99.90;;;6.41;66.12;98786.59;5232185;28;20207;-66
2023/04/03 08:56:32;;;;;;;4.83;4.20;;;5.80;99.90;;;6.66;66.82;98783.63;5235496;28;20201;-66
2023/04/03 08:59:15;;;;;;;5.07;4.57;;;6.00;99.90;;;6.51;67.27;98776.47;5240087;28;20207;-65
2023/04/03 09:01:48;;;;;;;5.20;4.70;;;6.00;99.90;;;6.79;67.70;98785.59;5235614;28;20204;-65
2023/04/03 09:04:21;;;;;;;5.57;5.07;;;6.10;99.90;;;6.97;65.21;98782.97;5233647;28;20238;-67
2023/04/03 09:06:59;;;;;;;4.60;4.30;;;6.30;99.90;;;7.27;65.20;98788.00;5229598;28;20288;-67
2023/04/03 09:09:36;;;;;;;4.43;4.03;;;6.50;99.90;;;7.23;64.72;98782.66;5234390;28;20196;-66
2023/04/03 09:12:18;;;;;;;5.63;4.27;;;6.60;99.90;;;7.36;65.24;98789.69;5237297;28;20677;-66
2023/04/03 09:15:03;;;;;;;4.37;4.00;;;6.70;99.90;;;6.53;63.08;98771.53;5229802;28;20226;-66
2023/04/03 09:17:43;;;;;;;4.47;4.07;;;6.40;99.90;;;6.98;63.43;98791.47;5232326;28;20200;-66
2023/04/03 09:20:25;;;;;;;4.30;4.00;;;6.40;99.90;;;7.38;60.72;98789.78;5227470;28;20208;-65
2023/04/03 09:22:59;;;;;;;4.83;4.53;;;6.70;99.90;;;7.05;61.03;98776.00;5237414;28;20219;-66
2023/04/03 09:25:34;;;;;;;4.60;4.30;;;6.60;99.90;;;6.83;60.55;98780.91;5239331;28;20237;-66
2023/04/03 09:28:09;;;;;;;4.10;3.80;;;6.40;99.90;;;6.85;61.49;98786.13;5230392;28;20208;-66
2023/04/03 09:30:44;;;;;;;4.90;4.50;;;6.40;99.90;;;6.90;61.54;98789.97;5235913;28;20212;-66
2023/04/03 09:33:18;;;;;;;4.60;4.30;;;6.50;99.90;;;6.93;62.96;98785.13;5229937;28;20234;-66
2023/04/03 09:35:51;;;;;;;4.40;4.10;;;6.40;99.90;;;7.09;62.13;98782.25;5234475;28;20673;-66
2023/04/03 09:38:25;;;;;;;4.50;4.20;;;6.50;99.90;;;7.34;60.90;98782.69;5235853;28;20299;-66
2023/04/03 09:41:07;;;;;;;4.37;3.97;;;6.70;99.90;;;7.38;61.13;98774.53;5233540;28;20211;-66
2023/04/03 09:43:40;;;;;;;4.37;3.97;;;6.70;99.90;;;7.66;59.46;98778.63;5240930;28;20268;-67
2023/04/03 09:46:26;;;;;;;4.40;4.00;;;6.90;99.90;;;7.62;59.40;98783.34;5230877;28;20225;-66
2023/04/03 09:49:03;;;;;;;6.00;4.40;;;6.90;99.90;;;7.30;60.90;98778.09;5232962;28;20201;-66
2023/04/03 09:51:42;;;;;;;3.73;3.43;;;6.70;99.90;;;7.40;58.02;98794.25;5228917;28;20221;-66
2023/04/03 09:54:37;;;;;;;3.87;3.57;;;6.90;99.90;;;6.93;58.95;98787.69;5231800;28;20220;-65
2023/04/03 09:57:13;;;;;;;4.50;3.70;;;6.50;99.90;;;6.90;59.56;98789.97;5228919;28;20653;-66
2023/04/03 09:59:59;;;;;;;3.77;3.47;;;6.40;99.90;;;6.49;59.01;98780.50;5224807;28;20204;-66
2023/04/03 10:02:38;;;;;;;3.70;3.40;;;6.30;99.90;;;6.74;58.83;98781.00;5229474;28;20209;-66
2023/04/03 10:05:33;;;;;;;3.27;3.07;;;6.30;99.90;;;6.79;58.08;98775.44;5228937;28;20266;-66
2023/04/03 10:08:24;;;;;;;4.07;3.67;;;6.30;99.90;;;6.62;58.09;98782.47;5232219;28;20204;-66
2023/04/03 10:11:11;;;;;;;3.67;3.37;;;6.20;99.90;;;6.44;57.46;98780.84;5234587;28;20201;-65
2023/04/03 10:13:56;;;;;;;4.03;3.40;;;6.10;99.90;;;6.43;56.47;98768.94;5229105;28;20554;-66
2023/04/03 10:16:43;;;;;;;3.90;3.60;;;6.10;99.50;;;6.41;58.40;98778.03;5236236;28;20212;-66
2023/04/03 10:19:35;;;;;;;3.83;3.40;;;6.00;99.90;;;6.67;59.81;98776.16;5227796;28;20205;-66
2023/04/03 10:22:20;;;;;;;3.70;3.50;;;6.10;99.90;;;6.95;58.91;98774.34;5236731;28;20696;-66
2023/04/03 10:25:04;;;;;;;4.27;3.60;;;6.30;99.90;;;7.10;60.14;98764.59;5232602;28;20692;-65
2023/04/03 10:27:52;;;;;;;4.30;3.90;;;6.50;99.90;;;7.11;57.25;98770.56;5236748;28;20206;-66
2023/04/03 10:30:44;;;;;;;3.97;3.60;;;6.50;99.90;;;6.86;55.14;98773.53;5228534;28;20292;-66
2023/04/03 10:33:37;;;;;;;4.13;3.50;;;6.40;98.30;;;7.17;55.74;98766.00;5234080;28;20655;-66
2023/04/03 10:36:26;;;;;;;3.57;3.27;;;6.50;99.00;;;7.29;54.08;98758.50;5230506;28;20259;-67
2023/04/03 10:39:09;;;;;;;3.60;3.33;;;6.60;98.00;;;6.53;51.65;98766.44;5239129;28;20197;-65
2023/04/03 10:41:58;;;;;;;3.30;2.90;;;6.40;95.30;;;6.47;50.18;98766.81;5234776;28;20236;-66
2023/04/03 10:45:16;;;;;;;3.37;3.17;;;6.20;94.30;;;6.86;48.77;98757.41;5231814;28;20239;-65
2023/04/03 10:48:03;;;;;;;3.50;3.03;;;6.30;93.80;;;6.65;49.53;98762.41;5231269;28;20213;-66
2023/04/03 10:50:44;;;;;;;3.77;3.43;;;6.30;94.30;;;6.53;51.04;98756.28;5243008;28;20200;-65
2023/04/03 10:53:26;;;;;;;3.10;2.90;;;6.20;94.80;;;6.63;52.64;98776.63;5238027;28;20201;-65
2023/04/03 10:56:06;;;;;;;3.33;3.13;;;6.20;96.00;;;6.68;52.01;98765.22;5235024;28;20251;-65
2023/04/03 10:58:44;;;;;;;3.77;3.50;;;6.30;95.20;;;6.45;52.08;98762.34;5233844;28;20669;-66
2023/04/03 11:01:22;;;;;;;3.43;3.20;;;6.30;95.60;;;6.81;53.90;98768.81;5233070;28;20213;-66
2023/04/03 11:03:59;;;;;;;4.00;3.60;;;6.40;96.80;;;6.90;52.29;98767.09;5233255;28;20212;-66
2023/04/03 11:06:37;;;;;;;3.80;3.50;;;6.50;96.60;;;7.17;52.09;98761.78;5234052;28;20203;-65
2023/04/03 11:09:23;;;;;;;3.80;3.40;;;6.60;96.00;;;7.11;52.16;98760.41;5239769;28;20197;-65